createdAt,value
2018-05-11T00:01:14.395Z,72.56
2018-05-11T00:03:39.973Z,74.45
2018-05-11T00:06:05.724Z,74.65
2018-05-11T00:08:31.373Z,74.39
2018-05-11T00:10:56.934Z,75.50
2018-05-11T00:13:22.626Z,75.77
2018-05-11T00:15:48.214Z,75.17
2018-05-11T00:18:13.835Z,75.23
2018-05-11T00:20:39.926Z,74.83
2018-05-11T00:23:05.484Z,74.83
2018-05-11T00:25:31.115Z,73.84
2018-05-11T00:27:56.922Z,74.86
2018-05-11T00:30:22.549Z,75.12
2018-05-11T00:32:48.427Z,74.36
2018-05-11T00:35:14.122Z,73.04
2018-05-11T00:37:39.745Z,72.57
2018-05-11T00:40:05.312Z,72.38
2018-05-11T00:42:31.082Z,71.82
2018-05-11T00:44:56.649Z,72.47
2018-05-11T00:47:22.214Z,74.71
2018-05-11T00:49:48.024Z,75.19
2018-05-11T00:52:13.606Z,75.20
2018-05-11T00:54:39.499Z,75.43
2018-05-11T00:57:05.242Z,76.71
2018-05-11T00:59:30.808Z,75.73
2018-05-11T01:01:58.727Z,75.00
2018-05-11T01:04:24.589Z,75.00
2018-05-11T01:06:50.196Z,76.05
2018-05-11T01:09:15.823Z,76.51
2018-05-11T01:11:41.673Z,74.97
2018-05-11T01:14:07.284Z,75.26
2018-05-11T01:16:33.041Z,75.25
2018-05-11T01:18:58.916Z,75.15
2018-05-11T01:21:24.584Z,75.58
2018-05-11T01:23:50.199Z,76.54
2018-05-11T01:26:15.919Z,76.87
2018-05-11T01:28:41.476Z,77.82
2018-05-11T01:31:07.053Z,77.82
2018-05-11T01:33:33.160Z,78.06
2018-05-11T01:35:58.781Z,78.71
2018-05-11T01:38:24.404Z,78.66
2018-05-11T01:40:50.275Z,78.89
2018-05-11T01:43:15.851Z,77.66
2018-05-11T01:45:41.508Z,77.62
